Terminal Aerodrome Forecast
Issued by NWS Louisville, KY

Home | Current Version | Previous Version | Text Only | Print | Product List | Glossary On
Versions: 1 2 3 4 5 6 7 8 9 10 11 12 13 14 15
000
FTUS43 KLMK 170500
TAFSDF
TAF
KSDF 170520Z 1706/1812 VRB03KT P6SM BKN250
     FM171400 20011KT P6SM SCT250
     FM180200 18004KT P6SM BKN250=

USA.gov is the U.S. government's official web portal to all federal, state and local government web resources and services.